Flight Track Log - Related Links

Times and Time Zones

All times are in EDT time to prevent confusion due to time zone crossing. See the TYR843 flight status page for this flight to view local times or setup timezone preferences in your user account.

Time Position Orientation Groundspeed Altitude Reporting Facility
EDT Latitude Longitude Course Direction KTS MPH feet Rate Location/Type
Sun 05:29:00 PM 47.7937 16.7375 160° South  Level Estimated
Sun 05:30:00 PM 47.6881 16.7930 161° South  Level Estimated
Sun 05:31:00 PM 47.5825 16.8482 161° South  Level Estimated
Sun 05:32:00 PM 47.4768 16.9032 161° South  Level Estimated
Sun 05:33:00 PM 47.3711 16.9580 161° South  Level Estimated
Sun 05:34:00 PM 47.2654 17.0126 161° South  Level Estimated
Sun 05:35:00 PM 47.1597 17.0670 161° South  Level Estimated
Sun 05:36:00 PM 47.0540 17.1211 161° South  Level Estimated
Sun 05:37:00 PM 46.9482 17.1751 161° South  Level Estimated
Sun 05:38:00 PM 46.8424 17.2288 161° South  Level Estimated
Sun 05:39:00 PM 46.7365 17.2823 161° South  Level Estimated
Sun 05:40:00 PM 46.6307 17.3356 161° South  Level Estimated
Sun 05:41:00 PM 46.5248 17.3887 161° South  Level Estimated
Sun 05:42:00 PM 46.4189 17.4416 161° South  Level Estimated
Sun 05:43:00 PM 46.3130 17.4943 161° South  Level Estimated
Sun 05:44:00 PM 46.2070 17.5467 161° South  Level Estimated
Sun 05:45:00 PM 46.1011 17.5990 161° South  Level Estimated
Sun 05:46:00 PM 45.9951 17.6511 161° South  Level Estimated
Sun 05:47:00 PM 45.8890 17.7030 161° South  Level Estimated
Sun 05:48:00 PM 45.7830 17.7547 161° South  Level Estimated
Sun 05:49:00 PM 45.6769 17.8061 161° South  Level Estimated
Sun 05:50:00 PM 45.5709 17.8574 161° South  Level Estimated
Sun 05:51:00 PM 45.4647 17.9085 161° South  Level Estimated
Sun 05:52:00 PM 45.3586 17.9594 161° South  Level Estimated
Sun 05:53:00 PM 45.2524 18.0101 161° South  Level Estimated
Sun 05:54:00 PM 45.1463 18.0606 161° South  Level Estimated
Sun 05:55:00 PM 45.0401 18.1110 161° South  Level Estimated
Sun 05:56:00 PM 44.9338 18.1611 162° South  Level Estimated
Sun 05:57:00 PM 44.8276 18.2111 162° South  Level Estimated
Sun 05:58:00 PM 44.7213 18.2609 162° South  Level Estimated
Sun 05:59:00 PM 44.6150 18.3105 162° South  Level Estimated
Sun 06:00:00 PM 44.5087 18.3599 162° South  Level Estimated
Sun 06:01:00 PM 44.4024 18.4091 162° South  Level Estimated
Sun 06:02:00 PM 44.2960 18.4582 162° South  Level Estimated
Sun 06:03:00 PM 44.1897 18.5071 162° South  Level Estimated
Sun 06:04:00 PM 44.0833 18.5558 162° South  Level Estimated
Sun 06:05:00 PM 43.9768 18.6043 162° South  Level Estimated
Sun 06:06:00 PM 43.8704 18.6527 162° South  Level Estimated
Sun 06:07:00 PM 43.7640 18.7008 162° South  Level Estimated
Sun 06:08:00 PM 43.6575 18.7488 162° South  Level Estimated
Sun 06:09:00 PM 43.5510 18.7967 162° South  Level Estimated
Sun 06:10:00 PM 43.4445 18.8444 162° South  Level Estimated
Sun 06:11:00 PM 43.3379 18.8919 162° South  Level Estimated
Sun 06:12:00 PM 43.2313 18.9392 162° South  Level Estimated
Sun 06:13:00 PM 43.1248 18.9864 162° South  Level Estimated
Sun 06:14:00 PM 43.0182 19.0334 162° South  Level Estimated
Sun 06:15:00 PM 42.9116 19.0802 162° South  Level Estimated
Sun 06:16:00 PM 42.8049 19.1269 162° South  Level Estimated
Sun 06:17:00 PM 42.6983 19.1734 162° South  Level Estimated
Sun 06:18:00 PM 42.5916 19.2198 162° South  Level Estimated
Sun 06:19:00 PM 42.4849 19.2660 162° South  Level Estimated
Sun 06:20:00 PM 42.3782 19.3121 162° South  Level Estimated
Sun 06:21:00 PM 42.2715 19.3580 162° South  Level Estimated
Sun 06:22:00 PM 42.1647 19.4037 162° South  Level Estimated
Sun 06:23:00 PM 42.0580 19.4493 162° South  Level Estimated
Sun 06:24:00 PM 41.9512 19.4947 162° South  Level Estimated
Sun 06:25:00 PM 41.8444 19.5400 162° South  Level Estimated
Sun 06:26:00 PM 41.7376 19.5851 163° South  Level Estimated
Sun 06:27:00 PM 41.6308 19.6301 163° South  Level Estimated
Sun 06:28:00 PM 41.5239 19.6749 163° South  Level Estimated
Sun 06:29:00 PM 41.4170 19.7196 163° South  Level Estimated
Sun 06:30:00 PM 41.4147 19.7206 163° South  Level Estimated
Sun 06:31:00 PM 41.4147 19.7206 21° North  Level Estimated
Sun 06:32:00 PM 41.4147 19.7206 21° North  Level Estimated
Sun 06:33:00 PM 41.4147 19.7206 21° North  Level Estimated
Sun 06:34:00 PM 41.4147 19.7206 21° North  Level Estimated
Sun 06:35:00 PM 41.4147 19.7206 21° North  Level Estimated
Sun 06:36:00 PM 41.4147 19.7206 21° North  Level Estimated
Sun 06:37:00 PM 41.4147 19.7206 21° North  Level Estimated
Sun 06:38:00 PM 41.4147 19.7206 21° North  Level Estimated
Sun 06:39:00 PM 41.4147 19.7206 21° North  Level Estimated
Sun 06:40:00 PM 41.4147 19.7206 21° North  Level Estimated

Login

Don't have an account? Register now (free) for customized features, flight alerts, and more!